Glencoe, Missouri
Current Conditions -  °F | °C
As of 2:54 AM on Saturday 25 Oct 2014 (Local Time) from KSUS Reporting Station
Clear Clear  
Wind Chill: 17°   Ceiling: Unl
Heat Index: 17°   Visibility: 10mi
Dew Point: 14°   Wind: 6mph
Humidity: 84%   Direction: 240°WSW
Pressure: 29.97"   Gusts: NA
Location:  38.54°N, 90.62°W
Report Text: KSUS 250754Z AUTO 24005KT 10SM CLR 17/14 A2997 RMK AO2 SLP145 T01720144 TSNO
Loading
Personal Weather Stations






























Interactive Weather Map
Tropical Storm Tracking
New forecast layout! Learn more

10-Day Weather Forecast

Advertisements
Track Severe Weather on mobile